createdAt,value
2018-08-11T00:00:53.609Z,1016.4
2018-08-11T00:05:54.017Z,1016.4
2018-08-11T00:10:53.501Z,1016.4
2018-08-11T00:15:53.703Z,1016
2018-08-11T00:20:53.715Z,1016
2018-08-11T00:25:53.652Z,1015.9
2018-08-11T00:30:53.637Z,1015.9
2018-08-11T00:35:53.873Z,1015.8
2018-08-11T00:40:53.821Z,1015.8
2018-08-11T00:45:53.799Z,1015.7
2018-08-11T00:50:53.807Z,1015.7
2018-08-11T00:55:53.818Z,1015.6
2018-08-11T01:00:53.787Z,1015.6
2018-08-11T01:05:53.737Z,1015.5
2018-08-11T01:10:53.319Z,1015.5
2018-08-11T01:15:53.365Z,1015.4
2018-08-11T01:20:53.417Z,1015.4
2018-08-11T01:25:53.487Z,1015.3
2018-08-11T01:30:53.559Z,1015.3
2018-08-11T01:35:53.811Z,1015.3
2018-08-11T01:40:53.845Z,1015.3
2018-08-11T01:45:53.943Z,1015.2
2018-08-11T01:50:54.020Z,1015.2
2018-08-11T01:55:54.037Z,1015.1
2018-08-11T02:00:54.204Z,1015.1
2018-08-11T02:05:53.581Z,1015
2018-08-11T02:10:53.804Z,1015
2018-08-11T02:15:53.783Z,1014.8
2018-08-11T02:20:53.795Z,1014.8
2018-08-11T02:25:53.742Z,1014.8
2018-08-11T02:30:53.765Z,1014.8
2018-08-11T02:35:54.060Z,1014.8
2018-08-11T02:40:54.198Z,1014.8
2018-08-11T02:45:54.155Z,1014.5
2018-08-11T02:50:54.181Z,1014.5
2018-08-11T02:55:53.439Z,1014.5
2018-08-11T03:00:53.430Z,1014.5
2018-08-11T03:05:53.557Z,1014.4
2018-08-11T03:10:53.996Z,1014.4
2018-08-11T03:15:54.049Z,1014.8
2018-08-11T03:20:54.170Z,1014.8
2018-08-11T03:25:53.722Z,1014.8
2018-08-11T03:30:53.870Z,1014.8
2018-08-11T03:35:54.247Z,1014.8
2018-08-11T03:40:54.235Z,1014.8
2018-08-11T03:45:54.413Z,1014.7
2018-08-11T03:50:53.485Z,1014.7
2018-08-11T03:55:53.578Z,1014.6
2018-08-11T04:00:53.632Z,1014.6
2018-08-11T04:05:53.680Z,1014.5
2018-08-11T04:10:54.349Z,1014.5
2018-08-11T04:15:53.437Z,1014.7
2018-08-11T04:20:53.683Z,1014.7
2018-08-11T04:25:53.760Z,1014.8
2018-08-11T04:30:53.864Z,1014.8
2018-08-11T04:35:53.877Z,1014.8
2018-08-11T04:40:54.062Z,1014.8
2018-08-11T04:45:54.174Z,1014.8
2018-08-11T04:50:54.248Z,1014.8
2018-08-11T04:55:53.512Z,1014.9
2018-08-11T05:00:53.591Z,1014.9
2018-08-11T05:05:54.126Z,1014.9
2018-08-11T05:10:54.231Z,1014.9
2018-08-11T05:15:54.315Z,1015.4
2018-08-11T05:20:54.343Z,1015.4
2018-08-11T05:25:54.315Z,1015.4
2018-08-11T05:30:54.365Z,1015.4
2018-08-11T05:35:54.447Z,1015.4
2018-08-11T05:40:54.435Z,1015.4
2018-08-11T05:45:53.567Z,1015.3
2018-08-11T05:50:53.537Z,1015.3
2018-08-11T05:55:53.897Z,1015.3
2018-08-11T06:00:53.922Z,1015.3
2018-08-11T06:05:54.533Z,1015.3
2018-08-11T06:10:54.320Z,1015.3
2018-08-11T06:15:54.811Z,1015.3
2018-08-11T06:20:54.165Z,1015.3
2018-08-11T06:25:54.190Z,1015.4
2018-08-11T06:30:54.189Z,1015.4
2018-08-11T06:35:54.257Z,1015.4
2018-08-11T06:40:54.622Z,1015.4
2018-08-11T06:45:53.728Z,1015.4
2018-08-11T06:50:53.712Z,1015.4
2018-08-11T06:55:53.735Z,1015.3
2018-08-11T07:00:53.781Z,1015.3
2018-08-11T07:05:53.762Z,1015.3
2018-08-11T07:10:54.125Z,1015.3
2018-08-11T07:15:54.435Z,1015.4
2018-08-11T07:20:54.436Z,1015.4
2018-08-11T07:25:54.394Z,1015.4
2018-08-11T07:30:54.471Z,1015.4
2018-08-11T07:35:54.666Z,1015.3
2018-08-11T07:40:53.730Z,1015.3
2018-08-11T07:45:53.700Z,1015.3
2018-08-11T07:50:53.752Z,1015.3
2018-08-11T07:55:53.882Z,1015.3
2018-08-11T08:00:54.035Z,1015.3
2018-08-11T08:05:54.225Z,1015.3
2018-08-11T08:10:54.198Z,1015.3
2018-08-11T08:15:54.250Z,1015.3
2018-08-11T08:20:54.321Z,1015.3
2018-08-11T08:25:54.332Z,1015.3
2018-08-11T08:30:54.288Z,1015.3
2018-08-11T08:35:54.569Z,1015.3
2018-08-11T08:40:54.518Z,1015.3
2018-08-11T08:45:54.560Z,1015.3
2018-08-11T08:50:54.610Z,1015.3
2018-08-11T08:55:53.863Z,1015.3
2018-08-11T09:00:53.976Z,1015.3
2018-08-11T09:05:54.056Z,1015.3
2018-08-11T09:10:54.425Z,1015.3
2018-08-11T09:15:54.481Z,1015.1
2018-08-11T09:20:54.542Z,1015.1
2018-08-11T09:25:54.483Z,1015
2018-08-11T09:30:54.634Z,1015
2018-08-11T09:35:54.011Z,1015
2018-08-11T09:40:54.029Z,1015
2018-08-11T09:45:54.056Z,1015.1
2018-08-11T09:50:54.201Z,1015.1
2018-08-11T09:55:54.482Z,1015
2018-08-11T10:00:54.584Z,1015
2018-08-11T10:05:54.792Z,1014.9
2018-08-11T10:10:54.241Z,1014.9
2018-08-11T10:15:54.256Z,1014.8
2018-08-11T10:20:54.360Z,1014.8
2018-08-11T10:25:54.367Z,1014.8
2018-08-11T10:30:54.380Z,1014.8
2018-08-11T10:35:54.901Z,1014.8
2018-08-11T10:40:53.905Z,1014.8
2018-08-11T10:45:53.907Z,1015.4
2018-08-11T10:50:53.886Z,1015.4
2018-08-11T10:55:54.898Z,1015.4
2018-08-11T11:00:53.963Z,1015.4
2018-08-11T11:05:54.007Z,1015.3
2018-08-11T11:10:54.662Z,1015.3
2018-08-11T11:15:54.672Z,1015.3
2018-08-11T11:20:54.792Z,1015.3
2018-08-11T11:25:54.838Z,1015.3
2018-08-11T11:30:54.874Z,1015.3
2018-08-11T11:35:54.053Z,1015.3
2018-08-11T11:40:54.136Z,1015.3
2018-08-11T11:45:54.118Z,1015.2
2018-08-11T11:50:54.220Z,1015.2
2018-08-11T11:55:54.526Z,1015.2
2018-08-11T12:00:54.534Z,1015.2
2018-08-11T12:05:54.842Z,1015.2
2018-08-11T12:10:54.578Z,1015.2
2018-08-11T12:15:54.578Z,1015.1
2018-08-11T12:20:54.737Z,1015.1
2018-08-11T12:25:54.906Z,1015.2
2018-08-11T12:30:53.995Z,1015.2
2018-08-11T12:35:54.756Z,1015.2
2018-08-11T12:40:54.958Z,1015.2
2018-08-11T12:45:55.036Z,1015.2
2018-08-11T12:50:54.195Z,1015.2
2018-08-11T12:55:54.253Z,1015.4
2018-08-11T13:00:54.306Z,1015.4
2018-08-11T13:05:54.448Z,1015.7
2018-08-11T13:10:54.790Z,1015.7
2018-08-11T13:15:54.590Z,1015.3
2018-08-11T13:20:54.739Z,1015.3
2018-08-11T13:25:54.485Z,1015.4
2018-08-11T13:30:54.092Z,1015.4
2018-08-11T13:35:54.544Z,1015.4
2018-08-11T13:40:54.569Z,1015.4
2018-08-11T13:45:54.589Z,1015.7
2018-08-11T13:50:54.684Z,1015.7
2018-08-11T13:55:54.221Z,1015.6
2018-08-11T14:00:54.226Z,1015.6
2018-08-11T14:05:54.555Z,1015.6
2018-08-11T14:10:55.095Z,1015.6
2018-08-11T14:15:54.901Z,1015.6
2018-08-11T14:20:54.909Z,1015.6
2018-08-11T14:25:55.070Z,1015.7
2018-08-11T14:30:54.716Z,1015.7
2018-08-11T14:35:54.857Z,1015.9
2018-08-11T14:40:54.870Z,1015.9
2018-08-11T14:45:54.912Z,1015.8
2018-08-11T14:50:54.257Z,1015.8
2018-08-11T14:55:54.505Z,1016
2018-08-11T15:00:54.526Z,1016
2018-08-11T15:05:54.637Z,1016.2
2018-08-11T15:10:54.240Z,1016.2
2018-08-11T15:15:55.139Z,1016.3
2018-08-11T15:20:54.223Z,1016.3
2018-08-11T15:25:54.286Z,1016
2018-08-11T15:30:54.235Z,1016
2018-08-11T15:35:54.590Z,1015.9
2018-08-11T15:40:55.103Z,1015.9
2018-08-11T15:45:55.114Z,1016
2018-08-11T15:50:54.428Z,1016
2018-08-11T15:55:55.148Z,1016.1
2018-08-11T16:00:54.742Z,1016.1
2018-08-11T16:05:54.676Z,1016.3
2018-08-11T16:10:55.109Z,1016.3
2018-08-11T16:15:55.025Z,1016.3
2018-08-11T16:20:55.224Z,1016.3
2018-08-11T16:25:54.693Z,1016.3
2018-08-11T16:30:54.823Z,1016.3
2018-08-11T16:35:54.996Z,1016.3
2018-08-11T16:40:55.021Z,1016.3
2018-08-11T16:45:54.323Z,1016.3
2018-08-11T16:50:55.193Z,1016.3
2018-08-11T16:55:54.482Z,1016.3
2018-08-11T17:00:54.929Z,1016.3
2018-08-11T17:05:55.311Z,1016.3
2018-08-11T17:10:54.423Z,1016.3
2018-08-11T17:15:54.393Z,1016.3
2018-08-11T17:20:55.017Z,1016.3
2018-08-11T17:25:54.598Z,1016.4
2018-08-11T17:30:54.344Z,1016.4
2018-08-11T17:35:54.860Z,1016.4
2018-08-11T17:40:54.681Z,1016.4
2018-08-11T17:45:54.511Z,1016.6
2018-08-11T17:50:54.601Z,1016.6
2018-08-11T17:55:54.963Z,1016.6
2018-08-11T18:00:55.040Z,1016.6
2018-08-11T18:05:55.146Z,1016.5
2018-08-11T18:10:54.715Z,1016.5
2018-08-11T18:15:55.234Z,1016.6
2018-08-11T18:20:55.033Z,1016.6
2018-08-11T18:25:54.543Z,1016.8
2018-08-11T18:30:55.327Z,1016.8
2018-08-11T18:35:55.292Z,1016.9
2018-08-11T18:40:55.335Z,1016.9
2018-08-11T18:45:55.365Z,1016.9
2018-08-11T18:50:54.522Z,1016.9
2018-08-11T18:55:54.639Z,1016.9
2018-08-11T19:00:54.615Z,1016.9
2018-08-11T19:05:54.872Z,1016.9
2018-08-11T19:10:54.515Z,1016.9
2018-08-11T19:15:55.068Z,1017.1
2018-08-11T19:20:55.150Z,1017.1
2018-08-11T19:25:55.260Z,1017.2
2018-08-11T19:30:54.978Z,1017.2
2018-08-11T19:35:55.322Z,1017.3
2018-08-11T19:40:55.425Z,1017.3
2018-08-11T19:45:55.419Z,1017.4
2018-08-11T19:50:55.458Z,1017.4
2018-08-11T19:55:54.738Z,1017.5
2018-08-11T20:00:54.893Z,1017.5
2018-08-11T20:05:55.041Z,1017.5
2018-08-11T20:10:55.327Z,1017.5
2018-08-11T20:15:55.022Z,1017.6
2018-08-11T20:20:55.073Z,1017.6
2018-08-11T20:25:55.168Z,1017.6
2018-08-11T20:30:55.223Z,1017.6
2018-08-11T20:35:55.231Z,1017.6
2018-08-11T20:40:55.069Z,1017.6
2018-08-11T20:45:55.140Z,1017.5
2018-08-11T20:50:55.240Z,1017.5
2018-08-11T20:55:54.591Z,1017.5
2018-08-11T21:00:54.643Z,1017.5
2018-08-11T21:05:54.881Z,1017.5
2018-08-11T21:10:55.311Z,1017.5
2018-08-11T21:15:54.672Z,1017.6
2018-08-11T21:20:54.715Z,1017.6
2018-08-11T21:25:54.754Z,1017.5
2018-08-11T21:30:54.709Z,1017.5
2018-08-11T21:35:55.082Z,1017.5
2018-08-11T21:40:55.019Z,1017.5
2018-08-11T21:45:54.991Z,1017.5
2018-08-11T21:50:55.098Z,1017.5
2018-08-11T21:55:55.442Z,1017.5
2018-08-11T22:00:55.457Z,1017.5
2018-08-11T22:05:54.769Z,1017.5
2018-08-11T22:10:55.304Z,1017.5
2018-08-11T22:15:55.101Z,1017.5
2018-08-11T22:20:55.290Z,1017.5
2018-08-11T22:25:55.479Z,1017.5
2018-08-11T22:30:55.435Z,1017.5
2018-08-11T22:35:54.924Z,1017.5
2018-08-11T22:40:55.000Z,1017.5
2018-08-11T22:45:55.053Z,1017.5
2018-08-11T22:50:55.213Z,1017.5
2018-08-11T22:55:55.145Z,1017.4
2018-08-11T23:00:55.279Z,1017.4
2018-08-11T23:05:55.405Z,1017.2
2018-08-11T23:10:55.400Z,1017.2
2018-08-11T23:15:55.672Z,1017.3
2018-08-11T23:20:55.704Z,1017.3
2018-08-11T23:25:55.670Z,1017.2
2018-08-11T23:30:55.675Z,1017.2
2018-08-11T23:35:55.008Z,1017.1
2018-08-11T23:40:55.080Z,1017.1
2018-08-11T23:45:55.125Z,1017
2018-08-11T23:50:55.218Z,1017
2018-08-11T23:55:55.230Z,1017
